Time;durP1;ratioP1;P1;durP2;ratioP2;P2;SDS_P1;SDS_P2;PMS_P1;PMS_P2;Temp;Humidity;BMP_temperature;BMP_pressure;BME280_temperature;BME280_humidity;BME280_pressure;Samples;Min_cycle;Max_cycle;Signal;HPM_P1;HPM_P2
2023/01/26 00:00:44;;;;;;;61.65;16.35;;;-1.10;99.90;;;;;;5149516;27;20085;-77
2023/01/26 00:03:09;;;;;;;58.03;16.75;;;-1.10;99.90;;;;;;5117371;27;20078;-77
2023/01/26 00:05:39;;;;;;;49.92;14.75;;;-1.10;99.90;;;;;;5152320;27;20043;-76
2023/01/26 00:08:05;;;;;;;58.33;15.52;;;-1.10;99.90;;;;;;5114903;27;20082;-77
2023/01/26 00:10:30;;;;;;;;;;;-1.10;99.90;;;;;;5150328;27;20038;-77
2023/01/26 00:12:56;;;;;;;57.45;14.95;;;-1.10;99.90;;;;;;5134569;27;20287;-77
2023/01/26 00:15:22;;;;;;;50.45;13.20;;;-1.10;99.90;;;;;;5135750;27;20043;-78
2023/01/26 00:17:50;;;;;;;67.22;17.60;;;-0.70;99.90;;;;;;5134945;27;20050;-76
2023/01/26 00:20:16;;;;;;;68.78;17.45;;;-0.90;99.90;;;;;;5154186;27;20282;-77
2023/01/26 00:22:41;;;;;;;66.93;19.20;;;-1.10;99.90;;;;;;5149261;27;20158;-80
2023/01/26 00:25:08;;;;;;;70.65;17.95;;;-0.80;99.90;;;;;;5147105;27;20050;-76
2023/01/26 00:27:33;;;;;;;;;;;-1.10;99.90;;;;;;5114586;27;20436;-76
2023/01/26 00:29:59;;;;;;;62.60;18.90;;;-1.10;99.90;;;;;;5128205;27;19969;-76
2023/01/26 00:32:24;;;;;;;65.65;18.30;;;-1.00;99.90;;;;;;5124895;27;20177;-77
2023/01/26 00:34:50;;;;;;;69.72;17.73;;;-1.00;99.90;;;;;;5153020;27;20049;-77
2023/01/26 00:37:16;;;;;;;65.93;17.73;;;-1.10;99.90;;;;;;5134572;27;20593;-77
2023/01/26 00:39:41;;;;;;;70.15;17.23;;;-1.00;99.90;;;;;;5134891;27;20229;-79
2023/01/26 00:42:10;;;;;;;77.80;19.75;;;-1.00;99.90;;;;;;5131676;27;20042;-77
2023/01/26 00:44:41;;;;;;;66.60;18.70;;;-1.00;99.90;;;;;;5153951;27;20088;-77
2023/01/26 00:47:08;;;;;;;75.20;17.95;;;-1.00;99.90;;;;;;5153932;27;20039;-77
2023/01/26 00:49:34;;;;;;;74.60;18.50;;;-1.00;99.90;;;;;;5140913;27;20047;-77
2023/01/26 00:52:00;;;;;;;70.43;18.20;;;-1.00;99.90;;;;;;5132230;27;20051;-76
2023/01/26 00:54:26;;;;;;;73.85;18.38;;;-1.00;99.90;;;;;;5150007;27;20090;-77
2023/01/26 00:56:52;;;;;;;77.85;18.60;;;-1.00;99.90;;;;;;5134014;27;20050;-76
2023/01/26 00:59:18;;;;;;;74.80;17.95;;;-1.00;99.90;;;;;;5153379;27;20507;-77
2023/01/26 01:01:44;;;;;;;74.65;20.27;;;-1.00;99.90;;;;;;5134875;27;20133;-80
2023/01/26 01:04:10;;;;;;;83.15;19.77;;;-1.00;99.90;;;;;;5138873;27;20408;-76
2023/01/26 01:06:35;;;;;;;70.47;17.48;;;-1.00;99.90;;;;;;5132081;27;20039;-77
2023/01/26 01:09:02;;;;;;;80.88;18.85;;;-1.00;99.90;;;;;;5132487;27;20050;-76
2023/01/26 01:11:27;;;;;;;;;;;-1.00;99.90;;;;;;5114050;27;20581;-77
2023/01/26 01:13:53;;;;;;;67.45;17.45;;;-0.90;99.90;;;;;;5132124;27;20029;-76
2023/01/26 01:16:19;;;;;;;64.10;16.77;;;-1.00;99.90;;;;;;5148601;27;20054;-77
2023/01/26 01:18:45;;;;;;;65.47;17.02;;;-0.40;99.90;;;;;;5152913;27;20081;-80
2023/01/26 01:21:13;;;;;;;68.88;17.20;;;-0.90;99.90;;;;;;5152798;27;20205;-77
2023/01/26 01:23:39;;;;;;;69.70;17.85;;;-0.90;99.90;;;;;;5151030;27;20113;-77
2023/01/26 01:26:05;;;;;;;63.28;17.83;;;-0.90;99.90;;;;;;5152999;27;20113;-77
2023/01/26 01:28:31;;;;;;;69.28;17.90;;;-0.90;99.90;;;;;;5152243;27;20121;-76
2023/01/26 01:30:57;;;;;;;68.78;17.05;;;-0.90;99.90;;;;;;5152825;27;20051;-77
2023/01/26 01:33:23;;;;;;;68.70;16.92;;;-0.80;99.90;;;;;;5129380;27;20047;-78
2023/01/26 01:35:59;;;;;;;69.80;15.88;;;-0.90;99.90;;;;;;5152735;27;20043;-78
2023/01/26 01:38:26;;;;;;;57.42;14.93;;;-1.00;99.90;;;;;;5143968;27;20054;-77
2023/01/26 01:40:54;;;;;;;66.60;15.05;;;-1.00;99.90;;;;;;5131757;27;20506;-77
2023/01/26 01:43:19;;;;;;;72.63;16.35;;;-1.00;99.90;;;;;;5132330;27;20047;-77
2023/01/26 01:45:47;;;;;;;57.47;14.80;;;-0.90;99.90;;;;;;5151917;27;20069;-77
2023/01/26 01:48:53;;;;;;;68.43;16.23;;;-0.90;99.90;;;;;;5152331;27;20050;-78
2023/01/26 01:51:33;;;;;;;53.30;15.25;;;-0.90;99.90;;;;;;5143967;27;20491;-79
2023/01/26 01:54:05;;;;;;;65.53;15.10;;;-0.90;99.90;;;;;;5134801;27;20103;-77
2023/01/26 01:56:32;;;;;;;58.55;14.30;;;-0.90;99.90;;;;;;5132560;27;20046;-77
2023/01/26 01:59:00;;;;;;;61.90;15.98;;;-0.40;99.90;;;;;;5112857;27;20511;-77
2023/01/26 02:01:26;;;;;;;57.53;16.40;;;-0.90;99.90;;;;;;5131601;27;20104;-78
2023/01/26 02:03:58;;;;;;;63.22;13.85;;;-0.90;99.90;;;;;;5126290;27;20043;-77
2023/01/26 02:06:47;;;;;;;64.35;14.73;;;-0.90;99.90;;;;;;5109938;27;20047;-77
2023/01/26 02:10:17;;;;;;;55.40;15.32;;;-0.90;99.90;;;;;;5130024;27;20112;-78
2023/01/26 02:12:02;;;;;;;55.67;15.32;;;-0.90;99.90;;;;;;5109789;28;20173;-77
2023/01/26 02:14:28;;;;;;;55.78;14.82;;;-0.90;99.90;;;;;;5111147;28;20078;-77
2023/01/26 02:16:54;;;;;;;62.13;15.18;;;-0.60;99.90;;;;;;5110614;28;20046;-77
2023/01/26 02:19:40;;;;;;;65.70;14.95;;;-0.90;99.90;;;;;;5110934;28;20047;-77
2023/01/26 02:22:31;;;;;;;55.22;15.15;;;-0.80;99.90;;;;;;5110162;28;20051;-78
2023/01/26 02:25:03;;;;;;;52.15;13.85;;;-0.80;99.90;;;;;;5110619;28;20043;-77
2023/01/26 02:27:29;;;;;;;56.17;14.60;;;-0.90;99.90;;;;;;5110353;28;20103;-76
2023/01/26 02:29:57;;;;;;;54.30;14.68;;;-0.80;99.90;;;;;;5110540;28;20081;-77
2023/01/26 02:32:23;;;;;;;50.22;14.60;;;-0.80;99.90;;;;;;5111475;28;20048;-78
2023/01/26 02:34:55;;;;;;;53.17;14.00;;;-0.80;99.90;;;;;;5111780;28;20104;-78
2023/01/26 02:37:21;;;;;;;60.50;15.25;;;-0.80;99.90;;;;;;5110550;28;20127;-77
2023/01/26 02:39:58;;;;;;;49.60;15.05;;;-0.80;99.90;;;;;;5111081;28;20169;-78
2023/01/26 02:42:40;;;;;;;49.83;12.35;;;-0.70;99.90;;;;;;5110319;28;20103;-78
2023/01/26 02:45:16;;;;;;;53.33;12.85;;;-0.80;99.90;;;;;;5111298;28;20083;-78
2023/01/26 02:47:43;;;;;;;50.83;13.93;;;-0.80;99.90;;;;;;5130166;28;20055;-78
2023/01/26 02:50:09;;;;;;;57.03;13.90;;;-0.30;99.90;;;;;;5131173;27;20051;-78
2023/01/26 02:52:35;;;;;;;47.70;13.32;;;-0.70;99.90;;;;;;5129375;27;20492;-78
2023/01/26 02:55:43;;;;;;;44.97;12.48;;;-0.70;99.90;;;;;;5118340;28;20100;-78
2023/01/26 02:57:52;;;;;;;49.05;11.68;;;-0.70;99.90;;;;;;5103565;28;20501;-78
2023/01/26 03:00:24;;;;;;;43.63;11.15;;;-0.70;99.90;;;;;;5130646;27;20047;-78
2023/01/26 03:02:52;;;;;;;42.35;10.43;;;-0.60;99.90;;;;;;5134274;27;20059;-78
2023/01/26 03:05:18;;;;;;;36.38;11.05;;;-0.70;99.90;;;;;;5134781;27;20129;-78
2023/01/26 03:07:44;;;;;;;38.83;10.57;;;-0.60;99.90;;;;;;5134329;27;20101;-78
2023/01/26 03:10:10;;;;;;;38.58;10.98;;;-0.60;99.90;;;;;;5134704;27;20086;-78
2023/01/26 03:12:36;;;;;;;33.50;11.20;;;-0.60;99.90;;;;;;5134285;27;20050;-78
2023/01/26 03:17:46;;;;;;;33.75;10.93;;;-0.60;99.90;;;;;;5119153;27;20069;-78
2023/01/26 03:28:25;;;;;;;36.85;10.00;;;-0.50;99.90;;;;;;5140585;27;20047;-79
2023/01/26 03:30:54;;;;;;;32.35;8.20;;;-0.50;99.90;;;;;;5136476;27;20377;-79
2023/01/26 03:33:19;;;;;;;34.08;7.90;;;-0.50;99.90;;;;;;5142743;27;20099;-79
2023/01/26 03:35:46;;;;;;;29.13;8.00;;;-0.50;99.90;;;;;;5117675;27;20810;-79
2023/01/26 03:38:12;;;;;;;29.10;9.93;;;-0.50;99.90;;;;;;5133157;27;20083;-79
2023/01/26 03:57:05;;;;;;;26.17;7.82;;;-0.40;99.90;;;;;;5153448;27;20510;-79
2023/01/26 03:59:37;;;;;;;23.63;6.38;;;-0.40;99.90;;;;;;5154740;27;20055;-79
2023/01/26 04:10:22;;;;;;;27.88;7.88;;;-0.40;99.90;;;;;;5110697;27;20047;-79
2023/01/26 04:23:49;;;;;;;22.33;6.70;;;-0.30;99.90;;;;;;5141416;27;20134;-79
2023/01/26 04:26:15;;;;;;;22.45;7.00;;;-0.30;99.90;;;;;;5133328;27;20696;-80
2023/01/26 04:28:41;;;;;;;16.90;4.60;;;-0.40;99.90;;;;;;5136874;27;20053;-80
2023/01/26 04:31:07;;;;;;;18.27;5.13;;;-0.30;99.90;;;;;;5135258;27;20035;-80
2023/01/26 04:33:33;;;;;;;29.67;6.50;;;-0.30;99.90;;;;;;5154067;27;20073;-80
2023/01/26 04:36:06;;;;;;;17.92;5.20;;;-0.30;99.90;;;;;;5135889;27;20495;-80
2023/01/26 04:38:32;;;;;;;22.27;5.75;;;-0.30;99.90;;;;;;5125939;27;20453;-80
2023/01/26 04:41:01;;;;;;;17.88;6.18;;;-0.30;99.90;;;;;;5133554;27;20135;-81
2023/01/26 04:43:27;;;;;;;20.67;5.95;;;-0.30;99.90;;;;;;5132328;27;20092;-80
2023/01/26 04:46:02;;;;;;;13.93;4.97;;;-0.30;99.90;;;;;;5153050;27;20042;-80
2023/01/26 04:48:29;;;;;;;19.13;6.10;;;-0.30;99.90;;;;;;5135604;27;20050;-80
2023/01/26 04:50:56;;;;;;;15.82;4.72;;;-0.30;99.90;;;;;;5154229;27;20102;-80
2023/01/26 04:53:22;;;;;;;19.02;6.03;;;-0.30;99.90;;;;;;5140104;27;20047;-80
2023/01/26 04:55:48;;;;;;;19.17;4.90;;;-0.30;99.90;;;;;;5133507;27;20104;-80
2023/01/26 04:58:14;;;;;;;21.35;5.57;;;0.20;99.90;;;;;;5112948;27;20047;-80
2023/01/26 05:00:39;;;;;;;16.90;5.90;;;-0.20;99.90;;;;;;5133233;27;20412;-80
2023/01/26 05:03:05;;;;;;;21.58;5.63;;;-0.20;99.90;;;;;;5132385;27;20047;-80
2023/01/26 05:05:38;;;;;;;19.08;5.95;;;-0.20;99.90;;;;;;5153899;27;20047;-80
2023/01/26 05:08:05;;;;;;;17.05;5.15;;;-0.20;99.90;;;;;;5150724;27;20450;-80
2023/01/26 05:10:31;;;;;;;17.73;5.32;;;-0.20;99.90;;;;;;5153820;27;20046;-80
2023/01/26 05:12:57;;;;;;;17.67;4.75;;;0.70;99.90;;;;;;5152537;27;20095;-80
2023/01/26 05:15:22;;;;;;;19.55;6.38;;;-0.20;99.90;;;;;;5134624;27;20570;-80
2023/01/26 05:17:48;;;;;;;19.60;5.55;;;-0.20;99.90;;;;;;5153084;27;20035;-79
2023/01/26 05:20:14;;;;;;;20.63;5.13;;;-0.20;99.90;;;;;;5134746;27;20042;-80
2023/01/26 05:22:40;;;;;;;20.63;6.05;;;-0.20;99.90;;;;;;5152937;27;20518;-79
2023/01/26 05:25:05;;;;;;;19.15;5.78;;;-0.10;99.90;;;;;;5152380;27;20431;-80
2023/01/26 05:27:31;;;;;;;16.65;4.50;;;-0.10;99.90;;;;;;5117025;27;20042;-79
2023/01/26 05:29:59;;;;;;;20.50;5.20;;;0.40;99.90;;;;;;5153260;27;20042;-80
2023/01/26 05:32:29;;;;;;;18.38;4.88;;;-0.10;99.90;;;;;;5151238;27;20075;-79
2023/01/26 05:34:55;;;;;;;20.33;5.63;;;0.10;99.90;;;;;;5114529;27;20131;-79
2023/01/26 05:37:24;;;;;;;16.90;6.13;;;0.30;99.90;;;;;;5131260;27;20042;-79
2023/01/26 05:39:49;;;;;;;21.25;4.72;;;-0.10;99.90;;;;;;5120012;27;20058;-79
2023/01/26 05:42:15;;;;;;;18.10;5.90;;;0.00;99.90;;;;;;5130922;27;20039;-79
2023/01/26 05:44:40;;;;;;;20.55;5.15;;;-0.10;99.90;;;;;;5132161;27;20096;-79
2023/01/26 05:47:06;;;;;;;17.42;5.15;;;0.30;99.90;;;;;;5132071;27;20546;-80
2023/01/26 05:49:32;;;;;;;19.58;5.30;;;-0.10;99.90;;;;;;5149368;27;20043;-80
2023/01/26 05:51:58;;;;;;;17.83;5.50;;;-0.10;99.90;;;;;;5132688;27;20050;-79
2023/01/26 05:54:24;;;;;;;19.75;4.65;;;-0.10;99.90;;;;;;5152120;27;20053;-79
2023/01/26 05:56:52;;;;;;;16.13;5.55;;;-0.10;99.90;;;;;;5151916;27;20039;-79
2023/01/26 05:59:18;;;;;;;14.30;4.35;;;0.10;99.90;;;;;;5152004;27;20115;-79
2023/01/26 06:01:44;;;;;;;16.48;4.70;;;0.20;99.90;;;;;;5152547;27;20131;-79
2023/01/26 06:04:09;;;;;;;21.15;6.97;;;0.00;99.90;;;;;;5143044;27;20508;-79
2023/01/26 06:06:35;;;;;;;20.08;5.68;;;0.30;99.90;;;;;;5131388;27;20062;-79
2023/01/26 06:09:01;;;;;;;16.20;5.10;;;0.70;99.90;;;;;;5141205;27;20046;-79
2023/01/26 06:11:26;;;;;;;17.67;4.75;;;0.00;99.90;;;;;;5151556;27;20035;-80
2023/01/26 06:13:52;;;;;;;18.90;5.63;;;0.50;99.90;;;;;;5152478;27;20272;-79
2023/01/26 06:16:18;;;;;;;16.75;4.78;;;0.00;99.90;;;;;;5125313;27;20079;-79
2023/01/26 06:18:48;;;;;;;19.08;5.93;;;0.40;99.90;;;;;;5133945;27;20046;-79
2023/01/26 06:21:13;;;;;;;17.05;4.35;;;0.00;99.90;;;;;;5151625;27;20125;-79
2023/01/26 06:23:39;;;;;;;13.15;4.35;;;0.30;99.90;;;;;;5134106;27;20551;-79
2023/01/26 06:26:06;;;;;;;17.40;5.18;;;0.00;99.90;;;;;;5152419;27;20099;-79
2023/01/26 06:28:31;;;;;;;22.08;5.35;;;0.00;99.90;;;;;;5149036;27;20067;-79
2023/01/26 06:31:05;;;;;;;20.60;5.57;;;0.00;99.90;;;;;;5151799;27;20065;-79
2023/01/26 06:33:35;;;;;;;14.07;4.78;;;0.00;99.90;;;;;;5132280;27;20133;-78
2023/01/26 06:36:13;;;;;;;18.85;5.15;;;0.00;99.90;;;;;;5146319;27;20073;-79
2023/01/26 06:38:44;;;;;;;21.30;5.45;;;0.20;99.90;;;;;;5142491;27;20073;-78
2023/01/26 06:41:10;;;;;;;16.45;4.97;;;0.00;99.90;;;;;;5156242;27;20149;-79
2023/01/26 06:43:36;;;;;;;21.48;5.10;;;0.00;99.90;;;;;;5155312;27;20049;-79
2023/01/26 06:46:04;;;;;;;17.17;4.90;;;0.00;99.90;;;;;;5138184;27;20054;-79
2023/01/26 06:48:32;;;;;;;18.55;5.22;;;0.00;99.90;;;;;;5155952;27;20045;-78
2023/01/26 06:51:21;;;;;;;21.20;5.50;;;0.10;99.90;;;;;;5138301;27;20058;-79
2023/01/26 06:53:54;;;;;;;17.80;5.78;;;0.10;99.90;;;;;;5145346;27;20078;-79
2023/01/26 06:56:22;;;;;;;23.50;6.75;;;0.10;99.90;;;;;;5134738;27;20047;-79
2023/01/26 06:58:47;;;;;;;17.52;6.03;;;0.50;99.90;;;;;;5150022;27;20114;-79
2023/01/26 07:01:20;;;;;;;27.33;6.70;;;0.10;99.90;;;;;;5155632;27;20615;-78
2023/01/26 07:03:50;;;;;;;20.85;6.55;;;0.70;99.90;;;;;;5155770;27;20082;-79
2023/01/26 07:06:16;;;;;;;28.70;7.03;;;0.60;99.90;;;;;;5154979;27;20047;-79
2023/01/26 07:08:42;;;;;;;21.60;6.07;;;0.20;99.90;;;;;;5155759;27;20050;-78
2023/01/26 07:11:08;;;;;;;26.75;5.78;;;0.20;99.90;;;;;;5156107;27;20062;-78
2023/01/26 07:13:34;;;;;;;32.92;6.43;;;0.10;99.90;;;;;;5135948;27;20107;-78
2023/01/26 07:16:06;;;;;;;27.35;6.38;;;0.20;99.90;;;;;;5133922;27;20496;-74
2023/01/26 07:18:32;;;;;;;30.88;6.38;;;0.20;99.90;;;;;;5152781;27;20078;-75
2023/01/26 07:21:21;;;;;;;23.45;6.25;;;0.30;99.90;;;;;;5156116;27;20090;-74
2023/01/26 07:23:48;;;;;;;26.77;7.03;;;0.50;99.90;;;;;;5143493;27;20043;-78
2023/01/26 07:26:14;;;;;;;42.47;8.73;;;0.60;99.90;;;;;;5136077;27;20085;-82
2023/01/26 07:28:40;;;;;;;41.60;7.32;;;0.50;99.90;;;;;;5154634;27;20081;-80
2023/01/26 07:31:07;;;;;;;38.88;6.25;;;0.50;99.90;;;;;;5155589;27;20046;-80
2023/01/26 07:33:33;;;;;;;28.13;5.97;;;0.40;99.90;;;;;;5154721;27;20038;-80
2023/01/26 07:36:00;;;;;;;40.40;7.68;;;0.50;99.90;;;;;;5134704;27;20465;-80
2023/01/26 07:38:27;;;;;;;39.72;8.43;;;0.40;99.90;;;;;;5145354;27;20113;-80
2023/01/26 07:40:54;;;;;;;25.38;6.07;;;0.50;99.90;;;;;;5141373;27;20055;-79
2023/01/26 07:43:19;;;;;;;31.70;8.05;;;0.30;99.90;;;;;;5133127;27;20043;-79
2023/01/26 07:45:50;;;;;;;47.90;8.93;;;0.90;99.90;;;;;;5139137;27;20387;-79
2023/01/26 07:48:21;;;;;;;45.05;8.20;;;0.30;99.90;;;;;;5154329;27;20050;-79
2023/01/26 07:50:48;;;;;;;31.38;6.45;;;0.40;99.90;;;;;;5155437;27;20054;-80
2023/01/26 07:53:18;;;;;;;37.28;7.57;;;0.50;99.90;;;;;;5154323;27;20039;-81
2023/01/26 07:55:44;;;;;;;39.47;7.60;;;0.40;99.90;;;;;;5137411;27;20062;-79
2023/01/26 07:58:10;;;;;;;41.70;8.13;;;0.40;99.90;;;;;;5150919;27;20053;-79
2023/01/26 08:00:36;;;;;;;;;;;1.10;99.90;;;;;;5155095;27;20054;-79
2023/01/26 08:03:02;;;;;;;45.40;7.68;;;0.40;99.90;;;;;;5154130;27;19923;-80
2023/01/26 08:05:28;;;;;;;34.00;8.52;;;0.50;99.90;;;;;;5154659;27;20053;-79
2023/01/26 08:07:59;;;;;;;50.60;8.60;;;0.70;99.90;;;;;;5152204;27;20053;-80
2023/01/26 08:10:30;;;;;;;48.05;9.90;;;0.50;99.90;;;;;;5135981;27;20042;-80
2023/01/26 08:12:57;;;;;;;47.03;8.70;;;0.50;99.90;;;;;;5153795;27;20120;-80
2023/01/26 08:15:23;;;;;;;51.55;8.60;;;0.50;99.90;;;;;;5136130;27;20055;-80
2023/01/26 08:17:49;;;;;;;51.40;10.52;;;0.60;99.90;;;;;;5118622;27;20053;-80
2023/01/26 08:20:15;;;;;;;46.80;9.57;;;0.60;99.90;;;;;;5152348;27;20043;-80
2023/01/26 08:22:40;;;;;;;43.58;10.02;;;0.60;99.90;;;;;;5146799;27;20613;-80
2023/01/26 08:25:07;;;;;;;48.67;11.48;;;0.70;99.90;;;;;;5133862;27;20082;-76
2023/01/26 08:27:32;;;;;;;;;;;0.70;99.90;;;;;;5132889;27;20131;-75
2023/01/26 08:29:58;;;;;;;43.72;9.15;;;0.70;99.90;;;;;;5133713;27;20333;-81
2023/01/26 08:32:24;;;;;;;;;;;0.70;99.90;;;;;;5133794;27;20121;-80
2023/01/26 08:34:50;;;;;;;44.15;9.60;;;1.30;99.90;;;;;;5126138;27;20010;-79
2023/01/26 08:37:15;;;;;;;30.85;8.48;;;1.20;99.90;;;;;;5153621;27;20046;-80
2023/01/26 08:39:41;;;;;;;46.20;9.93;;;0.80;99.90;;;;;;5151035;27;20494;-79
2023/01/26 08:42:07;;;;;;;42.53;8.43;;;0.90;99.90;;;;;;5153553;27;20497;-80
2023/01/26 08:44:32;;;;;;;41.83;8.63;;;0.90;99.90;;;;;;5101894;27;20260;-80
2023/01/26 08:46:58;;;;;;;43.00;9.48;;;0.90;99.90;;;;;;5133515;27;20055;-81
2023/01/26 08:49:24;;;;;;;43.75;9.77;;;1.00;99.90;;;;;;5132506;27;20130;-80
2023/01/26 08:51:49;;;;;;;34.60;8.10;;;1.00;99.90;;;;;;5132554;27;20047;-80
2023/01/26 08:54:15;;;;;;;36.25;7.60;;;1.00;99.90;;;;;;5153600;27;20039;-80
2023/01/26 08:56:40;;;;;;;43.90;8.98;;;1.00;99.90;;;;;;5152509;27;20043;-80
2023/01/26 08:59:06;;;;;;;34.10;8.45;;;1.00;99.90;;;;;;5153069;27;20054;-80
2023/01/26 09:01:32;;;;;;;37.90;7.85;;;1.00;99.90;;;;;;5133084;27;20483;-80
2023/01/26 09:03:58;;;;;;;33.95;8.05;;;1.00;99.90;;;;;;5135085;27;20042;-80
2023/01/26 09:06:24;;;;;;;37.97;9.18;;;1.00;99.90;;;;;;5152406;27;20050;-80
2023/01/26 09:08:49;;;;;;;30.23;8.32;;;1.20;99.90;;;;;;5137341;27;20047;-80
2023/01/26 09:11:15;;;;;;;36.25;7.80;;;1.50;99.90;;;;;;5151163;27;20054;-80
2023/01/26 09:13:41;;;;;;;;;;;1.00;99.90;;;;;;5152714;27;20058;-80
2023/01/26 09:16:14;;;;;;;29.98;7.10;;;1.00;99.90;;;;;;5153386;27;19922;-80
2023/01/26 09:18:40;;;;;;;40.25;7.28;;;1.00;99.90;;;;;;5152672;27;20186;-80
2023/01/26 09:21:07;;;;;;;29.20;7.00;;;1.00;99.90;;;;;;5117718;27;20479;-80
2023/01/26 09:23:34;;;;;;;37.00;8.10;;;1.00;99.90;;;;;;5152727;27;20069;-80
2023/01/26 09:26:01;;;;;;;44.17;7.70;;;1.40;99.90;;;;;;5153034;27;20055;-80
2023/01/26 09:28:27;;;;;;;36.72;7.13;;;1.00;99.90;;;;;;5147424;27;20050;-80
2023/01/26 09:30:52;;;;;;;53.75;9.27;;;1.10;99.90;;;;;;5150420;27;20046;-80
2023/01/26 09:33:20;;;;;;;54.60;8.55;;;1.10;99.90;;;;;;5167804;27;20065;-81
2023/01/26 09:35:46;;;;;;;82.65;8.30;;;1.10;99.90;;;;;;5165257;27;20080;-80
2023/01/26 09:38:12;;;;;;;39.67;6.85;;;1.10;99.90;;;;;;5151457;27;20114;-80
2023/01/26 09:41:05;;;;;;;57.03;9.18;;;1.20;99.90;;;;;;5118616;27;20051;-78
2023/01/26 09:43:35;;;;;;;50.95;6.18;;;1.30;99.90;;;;;;5140102;27;20050;-79
2023/01/26 09:46:18;;;;;;;43.83;7.72;;;1.40;99.90;;;;;;5153111;27;20038;-79
2023/01/26 09:48:58;;;;;;;45.58;6.45;;;1.50;99.90;;;;;;5161844;27;20115;-81
2023/01/26 09:51:34;;;;;;;68.35;8.13;;;1.90;99.90;;;;;;5170608;27;20053;-80
2023/01/26 09:54:27;;;;;;;34.15;6.80;;;1.80;99.90;;;;;;5155483;27;20399;-79
2023/01/26 09:56:54;;;;;;;27.10;5.95;;;1.90;99.90;;;;;;5145197;27;20082;-79
2023/01/26 09:59:43;;;;;;;20.55;4.97;;;2.10;99.90;;;;;;5164985;27;20491;-79
2023/01/26 10:02:33;;;;;;;19.25;5.03;;;2.20;99.90;;;;;;5167999;27;20046;-80
2023/01/26 10:05:24;;;;;;;19.83;4.47;;;2.30;99.90;;;;;;5170228;27;20042;-78
2023/01/26 10:07:49;;;;;;;24.90;4.35;;;2.40;99.90;;;;;;5167053;27;20042;-79
2023/01/26 10:10:26;;;;;;;16.88;4.85;;;2.50;99.90;;;;;;5171168;27;20510;-79
2023/01/26 10:12:52;;;;;;;19.20;4.85;;;2.50;99.90;;;;;;5171127;27;20069;-79
2023/01/26 10:15:37;;;;;;;14.90;4.90;;;2.60;99.90;;;;;;5151463;27;20038;-78
2023/01/26 10:18:15;;;;;;;17.33;4.18;;;2.60;99.90;;;;;;5169152;27;20038;-78
2023/01/26 10:20:46;;;;;;;21.35;5.07;;;2.70;99.90;;;;;;5165003;27;20089;-78
2023/01/26 10:23:35;;;;;;;26.35;6.38;;;2.80;99.90;;;;;;5171598;27;20042;-78
2023/01/26 10:26:12;;;;;;;17.58;4.50;;;3.00;99.90;;;;;;5161411;27;20046;-78
2023/01/26 10:28:40;;;;;;;28.55;4.68;;;3.40;99.90;;;;;;5138426;27;20047;-78
2023/01/26 10:31:15;;;;;;;18.60;4.68;;;3.40;99.90;;;;;;5151973;27;20051;-76
2023/01/26 10:33:53;;;;;;;21.52;5.85;;;3.50;99.90;;;;;;5150024;27;20082;-76
2023/01/26 10:36:19;;;;;;;23.70;5.22;;;3.70;99.90;;;;;;5137751;27;20054;-75
2023/01/26 10:38:46;;;;;;;20.27;5.70;;;3.90;99.90;;;;;;5130771;27;20039;-75
2023/01/26 10:41:17;;;;;;;19.23;4.90;;;4.10;99.90;;;;;;5138532;27;20125;-74
2023/01/26 10:43:57;;;;;;;14.32;4.53;;;4.30;99.90;;;;;;5137692;27;20054;-77
2023/01/26 10:46:28;;;;;;;21.95;4.70;;;4.50;99.90;;;;;;5164706;27;20042;-78
2023/01/26 10:48:57;;;;;;;17.60;4.05;;;4.70;99.90;;;;;;5170640;27;20077;-78
2023/01/26 10:51:32;;;;;;;23.30;3.85;;;4.90;99.90;;;;;;5172468;27;20054;-78
2023/01/26 10:54:26;;;;;;;17.55;4.47;;;5.10;99.90;;;;;;5129558;27;20042;-76
2023/01/26 10:56:57;;;;;;;11.10;3.58;;;5.40;99.90;;;;;;5131604;27;20046;-78
2023/01/26 10:59:44;;;;;;;15.80;4.72;;;5.70;99.90;;;;;;5145562;27;20050;-79
2023/01/26 11:02:10;;;;;;;19.63;3.67;;;5.90;99.90;;;;;;5159251;27;20058;-79
2023/01/26 11:04:37;;;;;;;23.15;4.43;;;6.30;99.90;;;;;;5158188;27;20042;-79
2023/01/26 11:07:26;;;;;;;19.08;4.05;;;6.70;99.90;;;;;;5150028;27;20034;-79
2023/01/26 11:09:53;;;;;;;16.02;3.40;;;7.30;99.90;;;;;;5150186;27;20050;-78
2023/01/26 11:12:21;;;;;;;21.13;3.55;;;8.40;99.90;;;;;;5163053;27;20043;-79
2023/01/26 11:15:02;;;;;;;16.00;3.35;;;9.40;99.90;;;;;;5154846;27;20110;-80
2023/01/26 11:17:58;;;;;;;13.05;3.47;;;10.30;99.90;;;;;;5160844;27;20398;-77
2023/01/26 11:21:07;;;;;;;18.88;3.70;;;11.10;99.90;;;;;;5168170;27;20102;-79
2023/01/26 11:23:48;;;;;;;17.33;3.67;;;11.90;99.90;;;;;;5077236;28;20058;-79
2023/01/26 11:26:38;;;;;;;16.65;3.00;;;12.50;99.90;;;;;;5075674;28;20092;-79
2023/01/26 11:29:31;;;;;;;11.15;2.63;;;13.10;99.90;;;;;;5151813;27;20479;-80
2023/01/26 11:32:12;;;;;;;12.85;2.95;;;13.60;99.90;;;;;;5172119;27;20034;-80
2023/01/26 11:34:53;;;;;;;13.20;3.13;;;14.00;99.90;;;;;;5153229;27;20119;-80
2023/01/26 11:37:44;;;;;;;10.48;2.45;;;14.50;99.90;;;;;;5154355;27;20049;-80
2023/01/26 11:40:27;;;;;;;12.48;3.25;;;15.00;99.90;;;;;;5168572;27;20391;-77
2023/01/26 11:43:19;;;;;;;17.02;3.25;;;15.50;99.90;;;;;;5144730;27;20122;-77
2023/01/26 11:45:51;;;;;;;13.45;2.95;;;15.80;99.90;;;;;;5140306;27;20090;-77
2023/01/26 11:48:41;;;;;;;11.82;2.38;;;16.10;99.90;;;;;;5145796;27;20577;-77
2023/01/26 11:51:50;;;;;;;11.10;2.03;;;16.50;99.90;;;;;;5144436;27;20047;-77
2023/01/26 11:54:41;;;;;;;10.63;2.58;;;16.70;99.90;;;;;;5132852;27;20066;-76
2023/01/26 11:57:27;;;;;;;12.70;3.08;;;17.20;99.90;;;;;;5148546;27;20074;-77
2023/01/26 12:00:04;;;;;;;12.80;2.33;;;17.70;99.90;;;;;;5138533;27;20066;-77
2023/01/26 12:02:31;;;;;;;11.63;1.95;;;18.30;99.90;;;;;;5142276;27;20075;-76
2023/01/26 12:05:01;;;;;;;13.10;2.60;;;18.90;99.90;;;;;;5153922;27;20054;-77
2023/01/26 12:07:50;;;;;;;11.55;2.20;;;19.40;99.90;;;;;;5134753;27;20051;-78
2023/01/26 12:10:18;;;;;;;13.05;2.63;;;19.90;99.90;;;;;;5137318;27;20458;-75
2023/01/26 12:13:14;;;;;;;11.30;1.90;;;20.30;99.90;;;;;;5144319;27;20398;-76
2023/01/26 12:15:48;;;;;;;15.68;2.88;;;20.40;99.90;;;;;;5130495;27;20058;-76
2023/01/26 12:18:25;;;;;;;8.77;2.33;;;20.50;99.90;;;;;;5150948;27;20074;-76
2023/01/26 12:21:01;;;;;;;16.98;2.20;;;19.80;99.90;;;;;;5141494;27;20039;-75
2023/01/26 12:23:27;;;;;;;;;;;18.40;99.90;;;;;;5135078;27;20754;-74
2023/01/26 12:26:10;;;;;;;12.13;2.10;;;17.10;97.90;;;;;;5143300;27;19926;-75
2023/01/26 12:29:09;;;;;;;12.05;2.20;;;17.20;99.90;;;;;;5145223;27;20174;-75
2023/01/26 12:32:01;;;;;;;9.77;2.25;;;16.70;99.90;;;;;;5140173;27;20078;-75
2023/01/26 12:34:29;;;;;;;13.07;1.90;;;15.60;99.90;;;;;;5144725;27;20047;-75
2023/01/26 12:37:14;;;;;;;11.70;2.47;;;14.90;99.90;;;;;;5134313;27;20042;-75
2023/01/26 12:40:17;;;;;;;14.00;2.63;;;14.40;99.90;;;;;;5151075;27;20035;-75
2023/01/26 12:43:08;;;;;;;8.32;1.88;;;14.20;99.90;;;;;;5145278;27;20036;-75
2023/01/26 12:45:40;;;;;;;10.57;1.92;;;15.20;99.90;;;;;;5131545;27;20130;-75
2023/01/26 12:48:32;;;;;;;12.00;1.63;;;15.30;99.90;;;;;;5148643;27;20107;-76
2023/01/26 12:51:09;;;;;;;6.00;1.90;;;16.00;99.90;;;;;;5137539;27;20043;-75
2023/01/26 12:53:55;;;;;;;8.50;1.83;;;17.00;99.90;;;;;;5152948;27;20678;-75
2023/01/26 12:56:24;;;;;;;7.43;1.87;;;17.70;99.90;;;;;;5134608;27;20104;-75
2023/01/26 12:58:52;;;;;;;11.00;2.47;;;17.10;99.90;;;;;;5142536;27;20491;-75
2023/01/26 13:01:22;;;;;;;11.55;1.90;;;16.00;99.90;;;;;;5148032;27;20050;-75
2023/01/26 13:03:57;;;;;;;11.50;1.95;;;14.90;99.90;;;;;;5143735;27;20043;-79
2023/01/26 13:06:25;;;;;;;9.63;2.05;;;13.80;99.90;;;;;;5142276;27;20043;-78
2023/01/26 13:08:57;;;;;;;10.75;2.03;;;12.60;99.90;;;;;;5123794;27;20488;-78
2023/01/26 13:11:43;;;;;;;11.07;1.80;;;11.70;99.90;;;;;;5143566;27;20729;-77
2023/01/26 13:14:30;;;;;;;11.30;1.70;;;10.90;99.90;;;;;;5130070;27;20086;-77
2023/01/26 13:17:17;;;;;;;7.53;2.22;;;10.40;99.90;;;;;;5138767;27;20042;-77
2023/01/26 13:19:43;;;;;;;8.68;1.65;;;10.20;99.90;;;;;;5080222;27;20133;-78
2023/01/26 13:22:24;;;;;;;7.72;1.60;;;10.60;99.90;;;;;;5148006;27;20494;-76
2023/01/26 13:24:57;;;;;;;14.43;2.53;;;12.20;99.90;;;;;;5147335;27;20098;-76
2023/01/26 13:27:30;;;;;;;11.43;2.28;;;14.20;99.90;;;;;;5140775;27;20468;-76
2023/01/26 13:29:56;;;;;;;5.57;1.73;;;15.70;99.90;;;;;;5132084;27;20100;-79
2023/01/26 13:32:21;;;;;;;;;;;16.80;99.90;;;;;;5114848;27;20051;-81
2023/01/26 13:34:58;;;;;;;8.32;1.80;;;17.80;98.50;;;;;;5138403;27;20002;-79
2023/01/26 13:37:49;;;;;;;9.35;1.88;;;18.70;99.90;;;;;;5151995;27;20039;-78
2023/01/26 13:40:18;;;;;;;7.63;2.45;;;19.20;92.00;;;;;;5139987;27;20051;-78
2023/01/26 13:43:14;;;;;;;3.90;1.20;;;19.70;99.90;;;;;;5145048;27;20050;-78
2023/01/26 13:46:08;;;;;;;8.23;1.67;;;20.30;97.80;;;;;;5120331;27;20054;-78
2023/01/26 13:48:42;;;;;;;5.00;1.10;;;20.40;99.90;;;;;;5132013;27;20059;-77